Nur fliegen ist schöner ....

Willkommen beim Flugservice Bautzen GmbH

Wir sind eine nach europäischen Richtlinien zugelassene Flugschule und lizenziertes Luftfahrtunternehmen. Bei uns können sie nicht nur Rundflüge über die Oberlausitz oder Sachsen buchen, sondern in unserer Flugschule selber das Fliegen erlernen. Erfahrene Fluglehrer stehen ihnen dabei zur Seite.

Wir bieten außerdem Businessflüghe sowie Transportleistungen auf dem Luftweg, ganz nach ihren Wünschen, an. Schauen sie sich in Ruhe bei uns um und wenn sie Fragen haben oder weitere Informationen benötigen, scheuen sie sich nicht Kontakt mit uns aufzunehmen.

Rundflüge können sie ganz leicht auch online in unserem Shop buchen.

Terminkalender

Letzter Monat September 2016 Nächster Monat
Mo Di Mi Do Fr Sa So
week 35 1 2 3 4
week 36 5 6 7 8 9 10 11
week 37 12 13 14 15 16 17 18
week 38 19 20 21 22 23 24 25
week 39 26 27 28 29 30

Flugwetterinfo

[Quelle: ADDS]
METAR
EDDC 260650Z VRB01KT CAVOK 11/09 Q1021 NOSIG =
TAF
COR EDDC 260527Z 2606/2706 23004KT CAVOK =
SR / SS: 04:55 / 16:50 UTC (EDAB Flugplatz Bautzen 2016-09-26)

Webcam EDAB

Webcam EDAB
Flugservice Bautzen GmbH, Kornmarkt 34, 02625 Bautzen  Telefon: +49 (3591) 211105, Telefax: +49 (3591) 274512, E-Mail:  flugservice(at)fsbautzen.de